createdAt,value
2022-09-10T00:00:37.775Z,16.79
2022-09-10T00:01:38.956Z,16.79
2022-09-10T00:02:37.804Z,16.78
2022-09-10T00:03:37.994Z,16.79
2022-09-10T00:04:37.836Z,16.81
2022-09-10T00:05:37.797Z,16.83
2022-09-10T00:06:37.708Z,16.83
2022-09-10T00:07:38.827Z,16.79
2022-09-10T00:08:37.758Z,16.77
2022-09-10T00:09:37.845Z,16.76
2022-09-10T00:10:37.706Z,16.75
2022-09-10T00:11:38.855Z,16.72
2022-09-10T00:12:37.676Z,16.69
2022-09-10T00:13:37.749Z,16.67
2022-09-10T00:14:37.597Z,16.66
2022-09-10T00:15:38.757Z,16.65
2022-09-10T00:16:37.601Z,16.65
2022-09-10T00:17:37.828Z,16.64
2022-09-10T00:18:37.748Z,16.63
2022-09-10T00:19:37.649Z,16.63
2022-09-10T00:20:37.528Z,16.61
2022-09-10T00:21:37.738Z,16.59
2022-09-10T00:22:37.499Z,16.58
2022-09-10T00:23:37.569Z,16.57
2022-09-10T00:24:37.546Z,16.57
2022-09-10T00:25:37.555Z,16.56
2022-09-10T00:26:37.469Z,16.54
2022-09-10T00:27:38.569Z,16.52
2022-09-10T00:28:37.679Z,16.49
2022-09-10T00:29:38.549Z,16.46
2022-09-10T00:30:37.388Z,16.43
2022-09-10T00:31:37.681Z,16.40
2022-09-10T00:32:37.370Z,16.39
2022-09-10T00:33:37.458Z,16.38
2022-09-10T00:34:37.359Z,16.36
2022-09-10T00:35:37.441Z,16.34
2022-09-10T00:36:37.312Z,16.34
2022-09-10T00:37:37.481Z,16.34
2022-09-10T00:38:37.321Z,16.34
2022-09-10T00:39:37.469Z,16.34
2022-09-10T00:40:37.300Z,16.34
2022-09-10T00:41:38.359Z,16.36
2022-09-10T00:42:37.230Z,16.37
2022-09-10T00:43:37.300Z,16.36
2022-09-10T00:44:37.269Z,16.36
2022-09-10T00:45:39.326Z,16.35
2022-09-10T00:46:37.232Z,16.34
2022-09-10T00:47:37.342Z,16.34
2022-09-10T00:48:37.218Z,16.33
2022-09-10T00:49:37.285Z,16.34
2022-09-10T00:50:37.120Z,16.32
2022-09-10T00:51:40.436Z,16.32
2022-09-10T00:52:39.821Z,16.32
2022-09-10T00:53:37.150Z,16.31
2022-09-10T00:54:37.220Z,16.32
2022-09-10T00:55:38.264Z,16.32
2022-09-10T00:56:37.041Z,16.34
2022-09-10T00:57:38.196Z,16.36
2022-09-10T00:58:37.078Z,16.39
2022-09-10T00:59:37.062Z,16.40
2022-09-10T01:00:37.091Z,16.40
2022-09-10T01:01:39.231Z,16.39
2022-09-10T01:02:36.971Z,16.36
2022-09-10T01:03:37.081Z,16.31
2022-09-10T01:04:36.941Z,16.27
2022-09-10T01:05:38.091Z,16.24
2022-09-10T01:06:36.935Z,16.23
2022-09-10T01:07:38.071Z,16.23
2022-09-10T01:08:36.923Z,16.23
2022-09-10T01:09:36.970Z,16.22
2022-09-10T01:10:36.863Z,16.22
2022-09-10T01:11:36.970Z,16.23
2022-09-10T01:12:36.842Z,16.22
2022-09-10T01:13:36.962Z,16.22
2022-09-10T01:14:36.854Z,16.21
2022-09-10T01:15:36.913Z,16.20
2022-09-10T01:16:36.859Z,16.20
2022-09-10T01:17:36.877Z,16.19
2022-09-10T01:18:36.764Z,16.18
2022-09-10T01:19:36.919Z,16.16
2022-09-10T01:20:36.795Z,16.15
2022-09-10T01:21:36.902Z,16.15
2022-09-10T01:22:36.712Z,16.14
2022-09-10T01:23:36.783Z,16.14
2022-09-10T01:24:36.673Z,16.14
2022-09-10T01:25:36.835Z,16.13
2022-09-10T01:26:36.686Z,16.13
2022-09-10T01:27:36.694Z,16.13
2022-09-10T01:28:36.641Z,16.12
2022-09-10T01:29:57.645Z,16.11
2022-09-10T01:30:36.603Z,16.10
2022-09-10T01:31:36.803Z,16.09
2022-09-10T01:32:36.583Z,16.08
2022-09-10T01:33:36.805Z,16.07
2022-09-10T01:34:36.554Z,16.06
2022-09-10T01:35:36.707Z,16.05
2022-09-10T01:36:36.613Z,16.04
2022-09-10T01:37:36.625Z,16.03
2022-09-10T01:38:36.537Z,16.02
2022-09-10T01:39:36.664Z,16.01
2022-09-10T01:40:36.474Z,15.99
2022-09-10T01:41:37.622Z,15.98
2022-09-10T01:42:36.454Z,15.97
2022-09-10T01:43:37.576Z,15.95
2022-09-10T01:44:36.417Z,15.93
2022-09-10T01:45:36.664Z,15.91
2022-09-10T01:46:36.390Z,15.90
2022-09-10T01:47:36.504Z,15.89
2022-09-10T01:48:36.435Z,15.88
2022-09-10T01:49:36.445Z,15.85
2022-09-10T01:50:36.345Z,15.83
2022-09-10T01:51:38.565Z,15.81
2022-09-10T01:52:36.312Z,15.81
2022-09-10T01:53:58.436Z,15.81
2022-09-10T01:54:36.284Z,15.80
2022-09-10T01:55:36.346Z,15.81
2022-09-10T01:56:36.385Z,15.83
2022-09-10T01:57:37.484Z,15.86
2022-09-10T01:58:36.225Z,15.88
2022-09-10T01:59:36.396Z,15.90
2022-09-10T02:00:36.206Z,15.91
2022-09-10T02:01:36.387Z,15.92
2022-09-10T02:02:36.307Z,15.93
2022-09-10T02:03:36.343Z,15.93
2022-09-10T02:04:36.148Z,15.94
2022-09-10T02:05:36.277Z,15.94
2022-09-10T02:06:36.122Z,15.94
2022-09-10T02:07:38.246Z,15.95
2022-09-10T02:08:36.158Z,15.95
2022-09-10T02:09:36.246Z,15.95
2022-09-10T02:10:36.056Z,15.96
2022-09-10T02:11:36.227Z,15.97
2022-09-10T02:12:36.036Z,15.97
2022-09-10T02:13:36.187Z,15.96
2022-09-10T02:14:36.057Z,15.93
2022-09-10T02:15:36.185Z,15.91
2022-09-10T02:16:36.028Z,15.90
2022-09-10T02:17:36.139Z,15.88
2022-09-10T02:18:35.956Z,15.88
2022-09-10T02:19:36.097Z,15.89
2022-09-10T02:20:35.947Z,15.89
2022-09-10T02:21:37.099Z,15.87
2022-09-10T02:22:35.920Z,15.84
2022-09-10T02:23:57.017Z,15.80
2022-09-10T02:24:35.877Z,15.76
2022-09-10T02:25:35.968Z,15.73
2022-09-10T02:26:35.849Z,15.71
2022-09-10T02:27:36.057Z,15.70
2022-09-10T02:28:35.946Z,15.67
2022-09-10T02:29:37.018Z,15.64
2022-09-10T02:30:35.798Z,15.61
2022-09-10T02:31:36.025Z,15.60
2022-09-10T02:32:35.779Z,15.59
2022-09-10T02:33:35.913Z,15.59
2022-09-10T02:34:35.789Z,15.59
2022-09-10T02:35:36.946Z,15.59
2022-09-10T02:36:35.730Z,15.59
2022-09-10T02:37:36.812Z,15.59
2022-09-10T02:38:35.692Z,15.57
2022-09-10T02:39:35.934Z,15.55
2022-09-10T02:40:35.697Z,15.53
2022-09-10T02:41:37.749Z,15.52
2022-09-10T02:42:35.662Z,15.50
2022-09-10T02:43:35.687Z,15.49
2022-09-10T02:44:35.690Z,15.47
2022-09-10T02:45:35.794Z,15.44
2022-09-10T02:46:35.578Z,15.41
2022-09-10T02:47:35.708Z,15.38
2022-09-10T02:48:35.578Z,15.35
2022-09-10T02:49:35.727Z,15.34
2022-09-10T02:50:35.559Z,15.32
2022-09-10T02:51:37.649Z,15.31
2022-09-10T02:52:35.499Z,15.30
2022-09-10T02:53:35.600Z,15.30
2022-09-10T02:54:35.469Z,15.31
2022-09-10T02:55:35.695Z,15.31
2022-09-10T02:56:35.480Z,15.31
2022-09-10T02:57:36.618Z,15.31
2022-09-10T02:58:35.471Z,15.32
2022-09-10T02:59:35.578Z,15.33
2022-09-10T03:00:35.392Z,15.33
2022-09-10T03:01:35.557Z,15.33
2022-09-10T03:02:35.390Z,15.33
2022-09-10T03:03:38.700Z,15.33
2022-09-10T03:04:35.417Z,15.34
2022-09-10T03:05:35.480Z,15.34
2022-09-10T03:06:35.317Z,15.35
2022-09-10T03:07:35.425Z,15.36
2022-09-10T03:08:35.353Z,15.37
2022-09-10T03:09:35.402Z,15.37
2022-09-10T03:10:35.312Z,15.38
2022-09-10T03:11:35.409Z,15.38
2022-09-10T03:12:35.220Z,15.37
2022-09-10T03:13:35.321Z,15.37
2022-09-10T03:14:35.221Z,15.36
2022-09-10T03:15:36.300Z,15.35
2022-09-10T03:16:35.343Z,15.34
2022-09-10T03:17:35.393Z,15.33
2022-09-10T03:18:35.485Z,15.32
2022-09-10T03:19:35.222Z,15.32
2022-09-10T03:20:35.142Z,15.32
2022-09-10T03:21:35.263Z,15.32
2022-09-10T03:22:35.090Z,15.32
2022-09-10T03:23:37.294Z,15.31
2022-09-10T03:24:35.072Z,15.31
2022-09-10T03:25:35.254Z,15.30
2022-09-10T03:26:35.051Z,15.29
2022-09-10T03:27:35.061Z,15.28
2022-09-10T03:28:35.067Z,15.26
2022-09-10T03:29:36.121Z,15.25
2022-09-10T03:30:35.035Z,15.24
2022-09-10T03:31:35.164Z,15.23
2022-09-10T03:32:34.971Z,15.22
2022-09-10T03:33:56.049Z,15.22
2022-09-10T03:34:34.933Z,15.21
2022-09-10T03:35:36.034Z,15.19
2022-09-10T03:36:34.899Z,15.19
2022-09-10T03:37:34.958Z,15.20
2022-09-10T03:38:34.943Z,15.20
2022-09-10T03:39:34.992Z,15.21
2022-09-10T03:40:34.902Z,15.20
2022-09-10T03:41:35.932Z,15.18
2022-09-10T03:42:34.825Z,15.17
2022-09-10T03:43:35.891Z,15.16
2022-09-10T03:44:34.813Z,15.14
2022-09-10T03:45:36.011Z,15.12
2022-09-10T03:46:34.840Z,15.11
2022-09-10T03:47:35.855Z,15.09
2022-09-10T03:48:34.762Z,15.07
2022-09-10T03:49:34.852Z,15.05
2022-09-10T03:50:34.724Z,15.05
2022-09-10T03:51:35.821Z,15.05
2022-09-10T03:52:34.681Z,15.05
2022-09-10T03:53:34.836Z,15.04
2022-09-10T03:54:34.723Z,15.03
2022-09-10T03:55:36.763Z,15.03
2022-09-10T03:56:34.679Z,15.03
2022-09-10T03:57:34.733Z,15.02
2022-09-10T03:58:34.665Z,15.00
2022-09-10T03:59:34.796Z,14.98
2022-09-10T04:00:34.623Z,14.96
2022-09-10T04:01:57.799Z,14.94
2022-09-10T04:02:34.553Z,14.93
2022-09-10T04:03:34.578Z,14.93
2022-09-10T04:04:34.674Z,14.94
2022-09-10T04:05:34.563Z,14.95
2022-09-10T04:06:34.605Z,14.97
2022-09-10T04:07:34.506Z,14.97
2022-09-10T04:09:45.395Z,14.37
2022-09-10T04:10:45.293Z,14.37
2022-09-10T04:11:45.386Z,14.61
2022-09-10T04:12:45.254Z,14.74
2022-09-10T04:13:45.377Z,14.82
2022-09-10T04:14:45.232Z,14.85
2022-09-10T04:15:47.355Z,14.85
2022-09-10T04:16:45.264Z,14.83
2022-09-10T04:17:45.247Z,14.82
2022-09-10T04:18:45.184Z,14.82
2022-09-10T04:19:47.287Z,14.81
2022-09-10T04:20:45.105Z,14.81
2022-09-10T04:21:45.300Z,14.80
2022-09-10T04:22:45.086Z,14.79
2022-09-10T04:23:45.094Z,14.79
2022-09-10T04:24:45.126Z,14.77
2022-09-10T04:25:45.135Z,14.77
2022-09-10T04:26:45.035Z,14.76
2022-09-10T04:27:45.255Z,14.76
2022-09-10T04:28:45.057Z,14.76
2022-09-10T04:29:45.187Z,14.77
2022-09-10T04:30:45.093Z,14.78
2022-09-10T04:31:46.136Z,14.78
2022-09-10T04:32:44.949Z,14.78
2022-09-10T04:33:45.002Z,14.78
2022-09-10T04:34:44.924Z,14.79
2022-09-10T04:35:46.027Z,14.79
2022-09-10T04:36:44.947Z,14.80
2022-09-10T04:37:44.985Z,14.80
2022-09-10T04:38:44.864Z,14.81
2022-09-10T04:39:44.973Z,14.83
2022-09-10T04:40:44.846Z,14.82
2022-09-10T04:42:09.138Z,14.83
2022-09-10T04:42:44.846Z,14.83
2022-09-10T04:43:44.846Z,14.83
2022-09-10T04:44:44.885Z,14.84
2022-09-10T04:45:44.918Z,14.84
2022-09-10T04:46:44.767Z,14.85
2022-09-10T04:47:45.897Z,14.86
2022-09-10T04:48:44.741Z,14.87
2022-09-10T04:49:44.916Z,14.88
2022-09-10T04:51:05.405Z,14.91
2022-09-10T04:51:45.694Z,14.93
2022-09-10T04:52:44.687Z,14.94
2022-09-10T04:53:44.858Z,14.95
2022-09-10T04:54:44.657Z,14.95
2022-09-10T04:55:46.864Z,14.97
2022-09-10T04:56:44.797Z,14.99
2022-09-10T04:57:44.719Z,15.01
2022-09-10T04:58:45.193Z,15.02
2022-09-10T04:59:45.717Z,15.03
2022-09-10T05:00:44.595Z,15.03
2022-09-10T05:01:44.705Z,15.03
2022-09-10T05:02:44.637Z,15.03
2022-09-10T05:03:45.726Z,15.04
2022-09-10T05:04:44.524Z,15.05
2022-09-10T05:05:44.700Z,15.05
2022-09-10T05:06:44.509Z,15.06
2022-09-10T05:07:44.598Z,15.07
2022-09-10T05:08:44.478Z,15.08
2022-09-10T05:09:44.505Z,15.08
2022-09-10T05:10:44.448Z,15.09
2022-09-10T05:11:44.602Z,15.11
2022-09-10T05:12:44.419Z,15.12
2022-09-10T05:13:46.517Z,15.14
2022-09-10T05:14:44.397Z,15.15
2022-09-10T05:15:45.546Z,15.17
2022-09-10T05:16:44.429Z,15.18
2022-09-10T05:17:46.456Z,15.19
2022-09-10T05:18:44.348Z,15.20
2022-09-10T05:19:45.407Z,15.21
2022-09-10T05:20:44.318Z,15.22
2022-09-10T05:21:44.549Z,15.23
2022-09-10T05:22:44.417Z,15.24
2022-09-10T05:23:44.409Z,15.26
2022-09-10T05:24:44.260Z,15.28
2022-09-10T05:25:46.424Z,15.28
2022-09-10T05:26:44.229Z,15.28
2022-09-10T05:27:44.438Z,15.27
2022-09-10T05:28:44.235Z,15.26
2022-09-10T05:29:45.339Z,15.28
2022-09-10T05:30:48.279Z,15.27
2022-09-10T05:31:45.246Z,15.26
2022-09-10T05:32:44.379Z,15.27
2022-09-10T05:33:44.297Z,15.28
2022-09-10T05:34:46.289Z,15.28
2022-09-10T05:35:44.139Z,15.29
2022-09-10T05:36:44.270Z,15.29
2022-09-10T05:37:44.092Z,15.29
2022-09-10T05:38:46.454Z,15.29
2022-09-10T05:39:44.156Z,15.29
2022-09-10T05:40:44.110Z,15.29
2022-09-10T05:41:44.058Z,15.30
2022-09-10T05:42:44.169Z,15.31
2022-09-10T05:43:44.010Z,15.32
2022-09-10T05:44:44.039Z,15.33
2022-09-10T05:45:44.041Z,15.33
2022-09-10T05:46:44.052Z,15.33
2022-09-10T05:47:44.108Z,15.32
2022-09-10T05:48:44.331Z,15.31
2022-09-10T05:49:43.930Z,15.30
2022-09-10T05:50:45.113Z,15.29
2022-09-10T05:51:43.930Z,15.30
2022-09-10T05:52:44.060Z,15.30
2022-09-10T05:53:43.984Z,15.30
2022-09-10T05:54:43.950Z,15.31
2022-09-10T05:55:43.850Z,15.31
2022-09-10T05:56:43.994Z,15.31
2022-09-10T05:57:43.831Z,15.29
2022-09-10T05:58:43.833Z,15.27
2022-09-10T05:59:43.890Z,15.25
2022-09-10T06:00:43.853Z,15.23
2022-09-10T06:01:43.779Z,15.23
2022-09-10T06:02:43.906Z,15.23
2022-09-10T06:03:43.750Z,15.25
2022-09-10T06:04:43.821Z,15.26
2022-09-10T06:05:43.800Z,15.26
2022-09-10T06:06:43.791Z,15.26
2022-09-10T06:07:43.698Z,15.27
2022-09-10T06:08:43.702Z,15.27
2022-09-10T06:09:43.679Z,15.28
2022-09-10T06:10:44.741Z,15.27
2022-09-10T06:11:43.681Z,15.26
2022-09-10T06:12:43.901Z,15.25
2022-09-10T06:13:43.665Z,15.22
2022-09-10T06:14:43.703Z,15.22
2022-09-10T06:15:43.591Z,15.22
2022-09-10T06:16:43.771Z,15.22
2022-09-10T06:17:43.593Z,15.22
2022-09-10T06:18:43.589Z,15.22
2022-09-10T06:19:43.562Z,15.23
2022-09-10T06:20:43.582Z,15.23
2022-09-10T06:21:43.564Z,15.24
2022-09-10T06:22:43.642Z,15.24
2022-09-10T06:23:43.506Z,15.25
2022-09-10T06:24:43.612Z,15.27
2022-09-10T06:25:43.470Z,15.29
2022-09-10T06:26:43.532Z,15.32
2022-09-10T06:27:43.442Z,15.36
2022-09-10T06:28:43.452Z,15.40
2022-09-10T06:29:43.553Z,15.44
2022-09-10T06:30:43.554Z,15.50
2022-09-10T06:31:43.384Z,15.56
2022-09-10T06:32:43.503Z,15.61
2022-09-10T06:33:43.362Z,15.66
2022-09-10T06:35:04.643Z,15.70
2022-09-10T06:35:43.404Z,15.74
2022-09-10T06:36:43.400Z,15.78
2022-09-10T06:37:43.304Z,15.80
2022-09-10T06:38:43.373Z,15.80
2022-09-10T06:39:43.336Z,15.82
2022-09-10T06:40:43.493Z,15.85
2022-09-10T06:41:46.840Z,15.90
2022-09-10T06:42:44.232Z,15.95
2022-09-10T06:43:44.293Z,15.99
2022-09-10T06:44:43.205Z,16.03
2022-09-10T06:45:43.288Z,16.08
2022-09-10T06:48:47.836Z,16.26
2022-09-10T06:49:43.188Z,16.29
2022-09-10T06:50:43.254Z,16.32
2022-09-10T06:51:43.122Z,16.36
2022-09-10T06:52:44.255Z,16.39
2022-09-10T06:53:43.085Z,16.42
2022-09-10T06:54:43.157Z,16.45
2022-09-10T06:55:43.064Z,16.50
2022-09-10T06:56:43.191Z,16.58
2022-09-10T06:57:43.106Z,16.65
2022-09-10T06:58:44.136Z,16.70
2022-09-10T06:59:43.074Z,16.75
2022-09-10T07:00:43.115Z,16.77
2022-09-10T07:01:42.967Z,16.81
2022-09-10T07:02:44.074Z,16.85
2022-09-10T07:03:42.969Z,16.90
2022-09-10T07:04:43.163Z,16.95
2022-09-10T07:05:42.954Z,17.02
2022-09-10T07:06:42.998Z,17.07
2022-09-10T07:07:42.901Z,17.11
2022-09-10T07:08:42.925Z,17.16
2022-09-10T07:09:42.857Z,17.20
2022-09-10T07:10:43.104Z,17.23
2022-09-10T07:11:42.850Z,17.26
2022-09-10T07:12:42.835Z,17.30
2022-09-10T07:13:42.819Z,17.34
2022-09-10T07:14:42.863Z,17.37
2022-09-10T07:15:42.813Z,17.40
2022-09-10T07:16:42.946Z,17.42
2022-09-10T07:17:42.755Z,17.47
2022-09-10T07:18:42.880Z,17.50
2022-09-10T07:19:42.806Z,17.53
2022-09-10T07:20:43.935Z,17.56
2022-09-10T07:21:42.738Z,17.60
2022-09-10T07:22:42.772Z,17.63
2022-09-10T07:23:42.668Z,17.67
2022-09-10T07:24:42.725Z,17.69
2022-09-10T07:25:42.645Z,17.71
2022-09-10T07:26:42.807Z,17.74
2022-09-10T07:27:42.730Z,17.74
2022-09-10T07:28:42.699Z,17.77
2022-09-10T07:29:42.577Z,17.79
2022-09-10T07:30:42.713Z,17.82
2022-09-10T07:31:42.563Z,17.85
2022-09-10T07:32:42.597Z,17.87
2022-09-10T07:33:42.594Z,17.88
2022-09-10T07:34:42.647Z,17.90
2022-09-10T07:35:42.506Z,17.93
2022-09-10T07:36:42.607Z,17.96
2022-09-10T07:37:42.478Z,17.98
2022-09-10T07:38:42.658Z,18.01
2022-09-10T07:39:42.641Z,18.03
2022-09-10T07:40:42.477Z,18.04
2022-09-10T07:41:42.450Z,18.06
2022-09-10T07:42:42.446Z,18.08
2022-09-10T07:43:42.399Z,18.10
2022-09-10T07:44:42.497Z,18.12
2022-09-10T07:45:42.439Z,18.15
2022-09-10T07:46:42.519Z,18.16
2022-09-10T07:47:42.364Z,18.20
2022-09-10T07:48:42.457Z,18.24
2022-09-10T07:49:42.317Z,18.28
2022-09-10T07:50:43.420Z,18.31
2022-09-10T07:51:42.296Z,18.31
2022-09-10T07:52:42.478Z,18.31
2022-09-10T07:53:50.254Z,18.30
2022-09-10T07:54:43.258Z,18.30
2022-09-10T07:55:42.339Z,18.33
2022-09-10T07:56:42.218Z,18.36
2022-09-10T07:57:42.267Z,18.39
2022-09-10T07:58:42.297Z,18.41
2022-09-10T07:59:42.300Z,18.43
2022-09-10T08:00:42.174Z,18.46
2022-09-10T08:01:43.395Z,18.49
2022-09-10T08:02:42.138Z,18.51
2022-09-10T08:03:42.349Z,18.52
2022-09-10T08:04:42.262Z,18.54
2022-09-10T08:05:42.210Z,18.55
2022-09-10T08:06:42.091Z,18.58
2022-09-10T08:07:43.279Z,18.61
2022-09-10T08:08:42.059Z,18.63
2022-09-10T08:09:42.190Z,18.64
2022-09-10T08:10:42.123Z,18.66
2022-09-10T08:11:42.054Z,18.67
2022-09-10T08:12:42.001Z,18.68
2022-09-10T08:13:42.065Z,18.69
2022-09-10T08:14:41.982Z,18.71
2022-09-10T08:15:42.118Z,18.72
2022-09-10T08:16:44.429Z,18.74
2022-09-10T08:18:05.099Z,18.76
2022-09-10T08:18:41.937Z,18.78
2022-09-10T08:19:42.053Z,18.80
2022-09-10T08:20:41.899Z,18.82
2022-09-10T08:21:42.013Z,18.86
2022-09-10T08:22:41.912Z,18.90
2022-09-10T08:23:41.964Z,18.94
2022-09-10T08:24:41.908Z,18.98
2022-09-10T08:25:41.940Z,19.00
2022-09-10T08:26:41.861Z,19.02
2022-09-10T08:27:42.893Z,19.04
2022-09-10T08:28:42.013Z,19.06
2022-09-10T08:29:41.940Z,19.10
2022-09-10T08:30:41.791Z,19.14
2022-09-10T08:31:41.773Z,19.17
2022-09-10T08:32:41.751Z,19.21
2022-09-10T08:33:41.793Z,19.24
2022-09-10T08:34:41.742Z,19.28
2022-09-10T08:35:41.803Z,19.32
2022-09-10T08:36:41.691Z,19.37
2022-09-10T08:37:41.747Z,19.40
2022-09-10T08:38:41.726Z,19.42
2022-09-10T08:39:41.945Z,19.45
2022-09-10T08:40:41.716Z,19.47
2022-09-10T08:41:41.643Z,19.49
2022-09-10T08:42:41.606Z,19.50
2022-09-10T08:43:41.699Z,19.50
2022-09-10T08:44:41.584Z,19.50
2022-09-10T08:45:42.626Z,19.49
2022-09-10T08:46:41.622Z,19.49
2022-09-10T08:47:41.585Z,19.49
2022-09-10T08:48:41.578Z,19.52
2022-09-10T08:49:41.693Z,19.54
2022-09-10T08:50:41.493Z,19.56
2022-09-10T08:51:42.545Z,19.57
2022-09-10T08:52:41.492Z,19.57
2022-09-10T08:53:41.675Z,19.58
2022-09-10T08:54:41.545Z,19.61
2022-09-10T08:55:48.297Z,19.62
2022-09-10T08:56:42.505Z,19.64
2022-09-10T08:57:41.526Z,19.67
2022-09-10T08:58:41.502Z,19.70
2022-09-10T08:59:42.496Z,19.74
2022-09-10T09:00:41.382Z,19.77
2022-09-10T09:01:42.481Z,19.79
2022-09-10T09:02:49.655Z,19.81
2022-09-10T09:03:42.336Z,19.83
2022-09-10T09:04:41.529Z,19.85
2022-09-10T09:05:41.317Z,19.88
2022-09-10T09:06:41.355Z,19.90
2022-09-10T09:07:41.267Z,19.91
2022-09-10T09:08:41.446Z,19.91
2022-09-10T09:09:41.296Z,19.91
2022-09-10T09:11:02.327Z,19.92
2022-09-10T09:11:41.248Z,19.94
2022-09-10T09:12:41.257Z,19.95
2022-09-10T09:13:41.187Z,19.98
2022-09-10T09:14:42.197Z,20.01
2022-09-10T09:15:41.224Z,20.02
2022-09-10T09:16:43.278Z,20.04
2022-09-10T09:17:41.129Z,20.07
2022-09-10T09:18:42.277Z,20.10
2022-09-10T09:19:41.247Z,20.14
2022-09-10T09:20:41.187Z,20.16
2022-09-10T09:21:41.088Z,20.18
2022-09-10T09:22:41.121Z,20.21
2022-09-10T09:23:56.856Z,20.24
2022-09-10T09:24:42.060Z,20.26
2022-09-10T09:25:41.148Z,20.29
2022-09-10T09:26:41.008Z,20.30
2022-09-10T09:27:42.238Z,20.31
2022-09-10T09:28:41.100Z,20.31
2022-09-10T09:29:41.161Z,20.30
2022-09-10T09:30:41.001Z,20.30
2022-09-10T09:31:40.984Z,20.31
2022-09-10T09:32:40.930Z,20.29
2022-09-10T09:33:41.091Z,20.27
2022-09-10T09:34:40.949Z,20.23
2022-09-10T09:35:41.950Z,20.22
2022-09-10T09:36:40.938Z,20.22
2022-09-10T09:37:40.938Z,20.23
2022-09-10T09:38:40.986Z,20.24
2022-09-10T09:39:41.016Z,20.25
2022-09-10T09:40:40.820Z,20.26
2022-09-10T09:41:41.877Z,20.22
2022-09-10T09:42:40.811Z,20.19
2022-09-10T09:43:40.871Z,20.18
2022-09-10T09:44:40.941Z,20.19
2022-09-10T09:45:40.970Z,20.20
2022-09-10T09:46:40.744Z,20.22
2022-09-10T09:47:40.911Z,20.23
2022-09-10T09:48:40.886Z,20.25
2022-09-10T09:49:40.900Z,20.26
2022-09-10T09:50:40.791Z,20.26
2022-09-10T09:51:40.774Z,20.26
2022-09-10T09:52:40.668Z,20.27
2022-09-10T09:53:44.032Z,20.28
2022-09-10T09:55:12.698Z,20.30
2022-09-10T09:55:41.631Z,20.31
2022-09-10T09:56:40.671Z,20.34
2022-09-10T09:57:41.835Z,20.37
2022-09-10T09:58:40.744Z,20.42
2022-09-10T09:59:40.723Z,20.46
2022-09-10T10:00:40.564Z,20.51
2022-09-10T10:01:40.742Z,20.56
2022-09-10T10:02:40.628Z,20.61
2022-09-10T10:03:41.704Z,20.70
2022-09-10T10:04:42.327Z,20.77
2022-09-10T10:05:40.543Z,20.83
2022-09-10T10:06:40.482Z,20.86
2022-09-10T10:07:40.592Z,20.90
2022-09-10T10:08:40.600Z,20.94
2022-09-10T10:09:40.683Z,20.97
2022-09-10T10:10:40.446Z,21.00
2022-09-10T10:11:40.533Z,21.04
2022-09-10T10:12:40.453Z,21.08
2022-09-10T10:13:40.572Z,21.13
2022-09-10T10:14:40.376Z,21.19
2022-09-10T10:15:40.559Z,21.25
2022-09-10T10:16:40.367Z,21.30
2022-09-10T10:18:02.445Z,21.36
2022-09-10T10:18:40.482Z,21.42
2022-09-10T10:19:40.546Z,21.48
2022-09-10T10:20:40.374Z,21.54
2022-09-10T10:21:41.404Z,21.60
2022-09-10T10:22:40.264Z,21.62
2022-09-10T10:23:40.360Z,21.65
2022-09-10T10:24:40.284Z,21.67
2022-09-10T10:26:01.306Z,21.71
2022-09-10T10:26:40.317Z,21.76
2022-09-10T10:27:40.378Z,21.80
2022-09-10T10:28:40.236Z,21.84
2022-09-10T10:29:40.356Z,21.89
2022-09-10T10:30:40.157Z,21.94
2022-09-10T10:31:40.238Z,22.01
2022-09-10T10:32:40.153Z,22.07
2022-09-10T10:33:40.186Z,22.12
2022-09-10T10:34:40.096Z,22.17
2022-09-10T10:35:42.276Z,22.22
2022-09-10T10:36:40.076Z,22.25
2022-09-10T10:37:40.194Z,22.25
2022-09-10T10:38:40.230Z,22.22
2022-09-10T10:39:40.322Z,22.15
2022-09-10T10:40:40.107Z,22.06
2022-09-10T10:41:40.166Z,21.98
2022-09-10T10:42:39.987Z,21.92
2022-09-10T10:43:40.103Z,21.89
2022-09-10T10:44:39.958Z,21.85
2022-09-10T10:45:40.087Z,21.82
2022-09-10T10:46:39.960Z,21.79
2022-09-10T10:47:40.207Z,21.76
2022-09-10T10:48:40.013Z,21.75
2022-09-10T10:50:52.749Z,21.28
2022-09-10T10:51:49.334Z,21.29
2022-09-10T10:52:49.420Z,21.52
2022-09-10T10:53:49.254Z,21.68
2022-09-10T10:54:49.355Z,21.80
2022-09-10T10:55:49.224Z,21.88
2022-09-10T10:56:49.424Z,21.95
2022-09-10T10:57:49.256Z,22.00
2022-09-10T10:58:53.986Z,22.06
2022-09-10T10:59:50.234Z,22.13
2022-09-10T11:00:51.360Z,22.20
2022-09-10T11:01:49.216Z,22.26
2022-09-10T11:02:49.265Z,22.33
2022-09-10T11:03:49.128Z,22.40
2022-09-10T11:04:50.255Z,22.47
2022-09-10T11:05:49.096Z,22.54
2022-09-10T11:06:51.217Z,22.61
2022-09-10T11:07:49.065Z,22.67
2022-09-10T11:08:49.261Z,22.72
2022-09-10T11:09:49.037Z,22.75
2022-09-10T11:10:50.166Z,22.79
2022-09-10T11:11:49.064Z,22.84
2022-09-10T11:12:50.182Z,22.91
2022-09-10T11:13:49.006Z,22.99
2022-09-10T11:14:49.163Z,23.05
2022-09-10T11:15:49.033Z,23.13
2022-09-10T11:16:49.183Z,23.21
2022-09-10T11:17:48.959Z,23.27
2022-09-10T11:18:50.024Z,23.33
2022-09-10T11:19:56.513Z,23.39
2022-09-10T11:20:49.909Z,23.45
2022-09-10T11:21:50.992Z,23.46
2022-09-10T11:22:48.934Z,23.45
2022-09-10T11:23:50.066Z,23.39
2022-09-10T11:24:48.838Z,23.32
2022-09-10T11:25:48.952Z,23.27
2022-09-10T11:26:48.838Z,23.21
2022-09-10T11:27:49.001Z,23.15
2022-09-10T11:28:48.787Z,23.09
2022-09-10T11:29:48.828Z,23.03
2022-09-10T11:30:48.826Z,22.93
2022-09-10T11:31:49.929Z,22.80
2022-09-10T11:32:48.791Z,22.69
2022-09-10T11:33:48.900Z,22.62
2022-09-10T11:34:48.702Z,22.56
2022-09-10T11:36:59.107Z,21.92
2022-09-10T11:37:58.048Z,21.92
2022-09-10T11:38:59.066Z,22.18
2022-09-10T11:39:58.079Z,22.35
2022-09-10T11:40:58.125Z,22.47
2022-09-10T11:41:57.959Z,22.56
2022-09-10T11:43:00.009Z,22.68
2022-09-10T11:43:57.970Z,22.82
2022-09-10T11:45:00.150Z,22.98
2022-09-10T11:45:57.909Z,23.11
2022-09-10T11:46:58.053Z,23.24
2022-09-10T11:47:57.928Z,23.35
2022-09-10T11:48:58.020Z,23.41
2022-09-10T11:49:57.948Z,23.46
2022-09-10T11:50:57.959Z,23.50
2022-09-10T11:51:57.820Z,23.53
2022-09-10T11:52:57.991Z,23.53
2022-09-10T11:53:57.801Z,23.52
2022-09-10T11:54:57.793Z,23.49
2022-09-10T11:55:57.790Z,23.48
2022-09-10T11:56:57.862Z,23.49
2022-09-10T11:57:57.764Z,23.50
2022-09-10T11:58:59.062Z,23.54
2022-09-10T11:59:57.741Z,23.54
2022-09-10T12:00:57.922Z,23.52
2022-09-10T12:01:57.761Z,23.47
2022-09-10T12:02:57.780Z,23.39
2022-09-10T12:03:57.709Z,23.30
2022-09-10T12:04:57.769Z,23.21
2022-09-10T12:05:57.642Z,23.15
2022-09-10T12:06:57.786Z,23.08
2022-09-10T12:07:57.644Z,23.01
2022-09-10T12:08:57.832Z,22.96
2022-09-10T12:09:57.612Z,22.94
2022-09-10T12:12:07.617Z,22.31
2022-09-10T12:13:07.497Z,22.32
2022-09-10T12:14:07.579Z,22.53
2022-09-10T12:15:07.408Z,22.63
2022-09-10T12:16:07.702Z,22.69
2022-09-10T12:17:07.344Z,22.72
2022-09-10T12:18:07.476Z,22.73
2022-09-10T12:19:07.328Z,22.72
2022-09-10T12:20:08.389Z,22.68
2022-09-10T12:21:07.317Z,22.65
2022-09-10T12:22:07.379Z,22.62
2022-09-10T12:23:07.305Z,22.59
2022-09-10T12:24:08.348Z,22.53
2022-09-10T12:25:07.289Z,22.45
2022-09-10T12:26:07.243Z,22.37
2022-09-10T12:27:07.220Z,22.25
2022-09-10T12:28:08.438Z,22.13
2022-09-10T12:29:07.229Z,22.03
2022-09-10T12:30:07.219Z,21.96
2022-09-10T12:31:07.207Z,21.90
2022-09-10T12:32:07.251Z,21.85
2022-09-10T12:33:07.120Z,21.79
2022-09-10T12:34:07.250Z,21.74
2022-09-10T12:35:07.159Z,21.68
2022-09-10T12:36:28.334Z,21.63
2022-09-10T12:37:07.115Z,21.54
2022-09-10T12:38:07.134Z,21.46
2022-09-10T12:39:07.052Z,21.43
2022-09-10T12:40:11.169Z,21.40
2022-09-10T12:41:08.021Z,21.38
2022-09-10T12:42:07.211Z,21.37
2022-09-10T12:43:07.062Z,21.36
2022-09-10T12:44:07.061Z,21.38
2022-09-10T12:45:07.020Z,21.43
2022-09-10T12:46:28.103Z,21.48
2022-09-10T12:47:06.943Z,21.55
2022-09-10T12:48:07.142Z,21.62
2022-09-10T12:49:06.922Z,21.69
2022-09-10T12:50:07.066Z,21.74
2022-09-10T12:51:06.892Z,21.80
2022-09-10T12:52:08.023Z,21.83
2022-09-10T12:53:06.863Z,21.82
2022-09-10T12:54:06.992Z,21.82
2022-09-10T12:55:06.833Z,21.81
2022-09-10T12:56:06.846Z,21.82
2022-09-10T12:57:06.847Z,21.86
2022-09-10T12:58:08.944Z,21.94
2022-09-10T12:59:06.775Z,22.04